Saint Louis, MO (63141)

5:26 PM CDT on August 21, 2017 (GMT -0500)
Creve Coeur | | Change Station

Elev 636 ft 38.66 °N, 90.44 °W | Updated 1 second ago

Partly Cloudy
Partly Cloudy
87.4 °F
Feels Like 85 °F
N
0.0
Wind Variable Wind from SSE
Gusts 0.0 mph

Today
High -- | Low -- °F
--% Chance of Precip.
Yesterday
High -- | Low -- °F
Precip. -- in
Pressure 29.99 in
Visibility 10.0 miles
Clouds Few 4000 ft
Few 10000 ft
Mostly Cloudy 25000 ft
Heat Index 85 °F
Dew Point 52 °F
Humidity 30%
Rainfall 0.00 in
Snow Depth Not available.
6:21 AM 7:47 PM
New Moon, 0% visible
METAR KSTL 212151Z 09006KT 10SM FEW040 FEW100 BKN250 31/24 A3002 RMK AO2 LTG DSNT NW TSE02 SLP153 CB DSNT NW MOV E T03060239
Pressure 29.99 in
Visibility 10.0 miles
Clouds Few 4000 ft
Few 10000 ft
Mostly Cloudy 25000 ft
Heat Index 85 °F
Dew Point 52 °F
Humidity 30%
Rainfall 0.00 in
Snow Depth Not available.
6:21 AM 7:47 PM
New Moon, 0% visible
METAR KSTL 212151Z 09006KT 10SM FEW040 FEW100 BKN250 31/24 A3002 RMK AO2 LTG DSNT NW TSE02 SLP153 CB DSNT NW MOV E T03060239

Get Severe Weather Alerts

Thanks for signing up!

Be on the lookout for a verification email in your inbox.

You'll start receiving the daily forecast at 6 AM.

×

10-Day Weather Forecast

Almanac

Astronomy

Aug. 21, 2017 Rise Set
Actual Time
Civil Twilight
Nautical Twilight
Astronomical Twilight
Moon
Length of Visible Light
Length of Day
Tomorrow will be .
, % of the Moon is Illuminated

Today's Extremes

State Highs State Lows

Community

WunderPhotos

Category 6

Welcome to Category 6. This is the collective home for Weather Underground's featured writeups by Dr. Jeff Masters (right), Bob Henson (left), Chris Burt, and other regular contributors.

Nearby

Air Quality

  Air Quality AQ Index Pollutant
Not available.

Snow Depth

Station Depth Elevation

Earthquake Activity

City Distance Mag. Time & Date
Minimum magnitude displayed is 2.5.

Coastal Water Temperatures

Place Temperature

Stations

Nearby Weather Stations

Station Location Temp. Windchill Dew Point Humidity Wind Precip. Elev Updated Type
                   

Watches & Warnings

There are currently no watches in effect.